createdAt,value
2022-10-09T00:01:12.565Z,102279.16
2022-10-09T00:04:15.345Z,102279.16
2022-10-09T00:07:18.201Z,102282.72
2022-10-09T00:10:22.839Z,102279.16
2022-10-09T00:13:26.005Z,102289.81
2022-10-09T00:16:29.338Z,102296.03
2022-10-09T00:19:32.156Z,102292.47
2022-10-09T00:22:35.149Z,102290.72
2022-10-09T00:25:39.353Z,102304.00
2022-10-09T00:28:42.253Z,102298.69
2022-10-09T00:31:45.114Z,102293.38
2022-10-09T00:34:48.007Z,102304.91
2022-10-09T00:37:50.853Z,102304.00
2022-10-09T00:40:55.094Z,102312.00
2022-10-09T00:43:59.983Z,102319.13
2022-10-09T00:47:02.788Z,102322.69
2022-10-09T00:50:12.813Z,102325.34
2022-10-09T00:53:19.195Z,102329.78
2022-10-09T00:56:23.822Z,102331.56
2022-10-09T00:59:27.175Z,102334.22
2022-10-09T01:02:30.157Z,102337.78
2022-10-09T01:05:54.990Z,102332.44
2022-10-09T01:09:04.595Z,102332.44
2022-10-09T01:12:16.217Z,102343.09
2022-10-09T01:15:21.755Z,102336.03
2022-10-09T01:18:31.227Z,102340.47
2022-10-09T01:21:41.231Z,102344.91
2022-10-09T01:24:53.247Z,102344.06
2022-10-09T01:27:58.064Z,102347.56
2022-10-09T01:31:04.436Z,102354.72
2022-10-09T01:34:09.498Z,102353.84
2022-10-09T01:37:14.389Z,102356.50
2022-10-09T01:40:18.943Z,102357.38
2022-10-09T01:43:23.188Z,102360.88
2022-10-09T01:46:28.970Z,102368.03
2022-10-09T01:49:42.333Z,102369.75
2022-10-09T01:52:49.898Z,102367.13
2022-10-09T01:56:00.192Z,102369.81
2022-10-09T01:59:14.808Z,102373.34
2022-10-09T02:02:19.535Z,102372.47
2022-10-09T02:05:24.727Z,102376.94
2022-10-09T02:08:27.525Z,102376.94
2022-10-09T02:11:33.207Z,102385.81
2022-10-09T02:14:39.401Z,102380.50
2022-10-09T02:17:47.660Z,102383.16
2022-10-09T02:20:57.701Z,102384.03
2022-10-09T02:24:02.768Z,102392.03
2022-10-09T02:27:05.992Z,102387.59
2022-10-09T02:30:12.188Z,102389.31
2022-10-09T02:33:15.081Z,102391.13
2022-10-09T02:36:17.861Z,102393.81
2022-10-09T02:39:20.657Z,102386.69
2022-10-09T02:42:23.441Z,102390.25
2022-10-09T02:45:27.716Z,102396.47
2022-10-09T02:48:30.566Z,102396.47
2022-10-09T02:51:33.491Z,102394.72
2022-10-09T02:54:36.407Z,102396.50
2022-10-09T02:57:39.214Z,102398.28
2022-10-09T03:00:43.410Z,102403.59
2022-10-09T03:03:46.560Z,102404.53
2022-10-09T03:06:49.399Z,102411.59
2022-10-09T03:09:52.680Z,102416.03
2022-10-09T03:12:55.471Z,102418.69
2022-10-09T03:16:05.147Z,102421.34
2022-10-09T03:19:08.120Z,102430.22
2022-10-09T03:22:10.893Z,102427.56
2022-10-09T03:25:13.763Z,102427.56
2022-10-09T03:28:16.580Z,102431.97
2022-10-09T03:31:50.006Z,102432.88
2022-10-09T03:34:46.333Z,102435.53
2022-10-09T03:37:49.639Z,102432.00
2022-10-09T03:40:52.425Z,102431.13
2022-10-09T03:43:55.189Z,102432.03
2022-10-09T03:46:59.362Z,102432.91
2022-10-09T03:50:02.233Z,102435.63
2022-10-09T03:53:05.063Z,102433.81
2022-10-09T03:56:08.091Z,102437.34
2022-10-09T03:59:11.321Z,102441.78
2022-10-09T04:02:15.508Z,102442.69
2022-10-09T04:05:18.605Z,102443.56
2022-10-09T04:08:21.411Z,102443.56
2022-10-09T04:11:24.443Z,102452.44
2022-10-09T04:14:27.241Z,102455.09
2022-10-09T04:17:31.557Z,102459.53
2022-10-09T04:20:34.356Z,102466.63
2022-10-09T04:23:37.645Z,102464.00
2022-10-09T04:26:40.444Z,102468.41
2022-10-09T04:29:43.480Z,102479.09
2022-10-09T04:32:49.135Z,102469.31
2022-10-09T04:35:54.485Z,102469.31
2022-10-09T04:38:57.354Z,102476.41
2022-10-09T04:42:00.117Z,102479.09
2022-10-09T04:45:03.037Z,102483.50
2022-10-09T04:48:07.237Z,102478.19
2022-10-09T04:51:10.726Z,102471.09
2022-10-09T04:54:13.681Z,102483.50
2022-10-09T04:57:16.467Z,102481.75
2022-10-09T05:00:19.395Z,102491.50
2022-10-09T05:03:23.614Z,102495.06
2022-10-09T05:06:26.824Z,102492.38
2022-10-09T05:09:29.620Z,102491.50
2022-10-09T05:12:32.490Z,102495.97
2022-10-09T05:15:37.991Z,102506.63
2022-10-09T05:18:44.613Z,102506.63
2022-10-09T05:21:47.392Z,102511.06
2022-10-09T05:24:50.190Z,102513.72
2022-10-09T05:27:53.081Z,102512.78
2022-10-09T05:30:56.128Z,102514.56
2022-10-09T05:34:01.756Z,102511.03
2022-10-09T05:37:04.657Z,102512.78
2022-10-09T05:40:08.959Z,102515.44
2022-10-09T05:43:11.826Z,102523.44
2022-10-09T05:46:17.110Z,102517.25
2022-10-09T05:49:21.393Z,102527.91
2022-10-09T05:52:24.206Z,102521.69
2022-10-09T05:55:27.886Z,102532.34
2022-10-09T05:58:30.679Z,102537.66
2022-10-09T06:01:36.026Z,102541.22
2022-10-09T06:04:40.369Z,102542.09
2022-10-09T06:07:43.185Z,102541.22
2022-10-09T06:10:45.953Z,102545.66
2022-10-09T06:13:49.231Z,102552.72
2022-10-09T06:16:52.559Z,102558.03
2022-10-09T06:19:56.799Z,102563.34
2022-10-09T06:22:59.552Z,102557.13
2022-10-09T06:26:03.892Z,102569.56
2022-10-09T06:29:06.780Z,102558.97
2022-10-09T06:32:09.566Z,102570.47
2022-10-09T06:35:13.817Z,102566.00
2022-10-09T06:38:18.072Z,102565.16
2022-10-09T06:41:22.945Z,102566.06
2022-10-09T06:44:25.913Z,102574.03
2022-10-09T06:47:28.693Z,102582.91
2022-10-09T06:50:36.587Z,102587.34
2022-10-09T06:53:41.052Z,102587.34
2022-10-09T06:56:44.508Z,102591.78
2022-10-09T06:59:50.126Z,102592.63
2022-10-09T07:02:53.593Z,102599.75
2022-10-09T07:06:06.714Z,102603.28
2022-10-09T07:09:12.371Z,102613.91
2022-10-09T07:12:15.213Z,102605.06
2022-10-09T07:15:18.147Z,102603.28
2022-10-09T07:18:20.945Z,102602.41
2022-10-09T07:21:25.163Z,102605.06
2022-10-09T07:24:28.361Z,102605.97
2022-10-09T07:27:31.340Z,102613.06
2022-10-09T07:30:34.195Z,102613.06
2022-10-09T07:33:37.074Z,102618.38
2022-10-09T07:36:41.235Z,102615.72
2022-10-09T07:39:45.091Z,102618.38
2022-10-09T07:42:48.326Z,102620.13
2022-10-09T07:45:51.370Z,102624.56
2022-10-09T07:48:54.293Z,102621.91
2022-10-09T07:51:58.447Z,102624.56
2022-10-09T07:55:01.332Z,102629.88
2022-10-09T07:58:04.333Z,102630.72
2022-10-09T08:01:08.104Z,102639.59
2022-10-09T08:04:10.964Z,102643.19
2022-10-09T08:07:15.266Z,102642.25
2022-10-09T08:10:18.231Z,102645.84
2022-10-09T08:13:21.193Z,102648.50
2022-10-09T08:16:26.307Z,102649.41
2022-10-09T08:19:29.076Z,102656.50
2022-10-09T08:22:33.525Z,102652.06
2022-10-09T08:25:36.977Z,102654.72
2022-10-09T08:28:39.922Z,102652.91
2022-10-09T08:31:42.920Z,102660.84
2022-10-09T08:34:45.896Z,102657.25
2022-10-09T08:37:50.276Z,102651.03
2022-10-09T08:40:58.698Z,102653.66
2022-10-09T08:44:04.422Z,102659.88
2022-10-09T08:47:13.028Z,102653.66
2022-10-09T08:50:20.089Z,102656.31
2022-10-09T08:53:35.025Z,102658.06
2022-10-09T08:56:39.150Z,102665.16
2022-10-09T08:59:42.727Z,102663.44
2022-10-09T09:03:07.750Z,102659.91
2022-10-09T09:06:15.895Z,102658.19
2022-10-09T09:09:28.702Z,102660.84
2022-10-09T09:12:37.221Z,102660.84
2022-10-09T09:15:48.439Z,102667.91
2022-10-09T09:19:03.721Z,102657.28
2022-10-09T09:22:11.080Z,102659.94
2022-10-09T09:25:21.076Z,102654.63
2022-10-09T09:28:29.276Z,102651.06
2022-10-09T09:31:37.515Z,102651.06
2022-10-09T09:34:42.887Z,102662.59
2022-10-09T09:37:45.718Z,102655.53
2022-10-09T09:40:50.774Z,102646.63
2022-10-09T09:43:53.557Z,102651.94
2022-10-09T09:46:56.502Z,102652.84
2022-10-09T09:50:01.424Z,102641.31
2022-10-09T09:53:15.461Z,102642.19
2022-10-09T09:56:20.592Z,102639.50
2022-10-09T09:59:34.040Z,102643.09
2022-10-09T10:02:36.905Z,102640.41
2022-10-09T10:05:40.916Z,102634.22
2022-10-09T10:08:46.801Z,102635.94
2022-10-09T10:11:56.470Z,102633.28
2022-10-09T10:14:59.413Z,102639.53
2022-10-09T10:18:04.601Z,102638.63
2022-10-09T10:21:14.110Z,102631.53
2022-10-09T10:24:22.425Z,102624.44
2022-10-09T10:27:34.573Z,102627.09
2022-10-09T10:30:39.101Z,102627.09
2022-10-09T10:33:44.827Z,102627.97
2022-10-09T10:36:48.571Z,102620.88
2022-10-09T10:39:59.109Z,102624.38
2022-10-09T10:43:24.405Z,102623.44
2022-10-09T10:46:31.182Z,102619.00
2022-10-09T10:49:34.438Z,102618.09
2022-10-09T10:52:44.507Z,102613.63
2022-10-09T10:55:54.447Z,102610.03
2022-10-09T10:59:19.284Z,102621.53
2022-10-09T11:02:51.139Z,102606.44
2022-10-09T11:06:00.406Z,102602.84
2022-10-09T11:09:12.863Z,102592.22
2022-10-09T11:12:46.721Z,102602.81
2022-10-09T11:16:02.326Z,102589.47
2022-10-09T11:19:21.190Z,102592.09
2022-10-09T11:22:41.647Z,102593.78
2022-10-09T11:25:52.881Z,102594.66
2022-10-09T11:29:02.885Z,102593.75
2022-10-09T11:32:15.041Z,102592.88
2022-10-09T11:35:22.483Z,102590.22
2022-10-09T11:38:29.657Z,102587.56
2022-10-09T11:41:35.730Z,102581.41
2022-10-09T11:44:48.450Z,102580.50
2022-10-09T11:48:00.602Z,102584.06
2022-10-09T11:51:12.927Z,102566.34
2022-10-09T11:54:19.541Z,102564.56
2022-10-09T11:57:29.386Z,102558.41
2022-10-09T12:00:33.999Z,102560.19
2022-10-09T12:03:40.147Z,102548.66
2022-10-09T12:06:47.977Z,102553.13
2022-10-09T12:09:50.940Z,102540.69
2022-10-09T12:12:59.621Z,102550.50
2022-10-09T12:16:02.543Z,102540.75
2022-10-09T12:19:16.534Z,102531.00
2022-10-09T12:22:22.866Z,102539.88
2022-10-09T12:25:30.446Z,102532.81
2022-10-09T12:28:37.453Z,102531.06
2022-10-09T12:31:42.420Z,102531.06
2022-10-09T12:34:48.765Z,102523.06
2022-10-09T12:37:51.710Z,102526.66
2022-10-09T12:40:56.622Z,102512.47
2022-10-09T12:44:00.217Z,102515.13
2022-10-09T12:47:07.312Z,102516.91
2022-10-09T12:50:24.413Z,102513.34
2022-10-09T12:53:29.940Z,102516.91
2022-10-09T12:56:35.865Z,102515.13
2022-10-09T12:59:39.001Z,102509.81
2022-10-09T13:02:41.974Z,102511.56
2022-10-09T13:05:46.244Z,102507.13
2022-10-09T13:08:55.054Z,102500.03
2022-10-09T13:12:01.513Z,102495.56
2022-10-09T13:15:06.522Z,102492.91
2022-10-09T13:18:22.771Z,102485.75
2022-10-09T13:21:31.336Z,102482.22
2022-10-09T13:24:37.196Z,102485.72
2022-10-09T13:27:40.781Z,102490.16
2022-10-09T13:30:43.701Z,102483.09
2022-10-09T13:33:47.981Z,102485.75
2022-10-09T13:36:52.413Z,102479.59
2022-10-09T13:39:56.235Z,102475.16
2022-10-09T13:43:04.132Z,102478.75
2022-10-09T13:46:07.438Z,102479.63
2022-10-09T13:49:11.079Z,102479.63
2022-10-09T13:52:15.311Z,102472.53
2022-10-09T13:55:18.380Z,102475.19
2022-10-09T13:58:21.710Z,102470.81
2022-10-09T14:01:24.646Z,102462.84
2022-10-09T14:04:28.098Z,102473.50
2022-10-09T14:07:32.511Z,102463.78
2022-10-09T14:10:35.345Z,102462.03
2022-10-09T14:13:38.237Z,102456.69
2022-10-09T14:16:41.194Z,102454.91
2022-10-09T14:19:43.986Z,102459.34
2022-10-09T14:22:48.486Z,102461.97
2022-10-09T14:25:51.555Z,102458.44
2022-10-09T14:28:54.653Z,102446.88
2022-10-09T14:31:57.561Z,102455.72
2022-10-09T14:35:00.429Z,102447.69
2022-10-09T14:38:04.686Z,102445.88
2022-10-09T14:41:09.084Z,102443.22
2022-10-09T14:44:12.101Z,102442.31
2022-10-09T14:47:15.021Z,102436.06
2022-10-09T14:50:18.078Z,102439.63
2022-10-09T14:53:22.233Z,102435.19
2022-10-09T14:56:26.227Z,102436.97
2022-10-09T14:59:30.616Z,102419.22
2022-10-09T15:02:33.512Z,102436.91
2022-10-09T15:05:36.490Z,102431.59
2022-10-09T15:08:42.531Z,102428.88
2022-10-09T15:11:45.396Z,102431.56
2022-10-09T15:14:48.451Z,102426.22
2022-10-09T15:17:51.412Z,102419.13
2022-10-09T15:20:54.743Z,102428.00
2022-10-09T15:24:00.698Z,102413.81
2022-10-09T15:27:03.539Z,102412.03
2022-10-09T15:30:07.299Z,102408.47
2022-10-09T15:33:10.227Z,102409.34
2022-10-09T15:36:12.997Z,102412.03
2022-10-09T15:39:17.177Z,102410.25
2022-10-09T15:42:20.142Z,102411.97
2022-10-09T15:45:23.043Z,102408.44
2022-10-09T15:48:26.258Z,102400.44
2022-10-09T15:51:30.037Z,102404.00
2022-10-09T15:54:34.548Z,102399.50
2022-10-09T15:57:37.359Z,102404.00
2022-10-09T16:00:43.831Z,102406.59
2022-10-09T16:03:47.333Z,102400.41
2022-10-09T16:06:50.154Z,102399.50
2022-10-09T16:09:54.317Z,102412.81
2022-10-09T16:12:57.167Z,102407.50
2022-10-09T16:16:00.031Z,102408.34
2022-10-09T16:19:05.094Z,102407.44
2022-10-09T16:22:08.044Z,102405.66
2022-10-09T16:25:12.495Z,102409.19
2022-10-09T16:28:15.362Z,102403.84
2022-10-09T16:31:23.589Z,102405.63
2022-10-09T16:34:26.491Z,102409.19
2022-10-09T16:37:29.541Z,102404.69
2022-10-09T16:43:57.879Z,102401.16
2022-10-09T16:47:00.684Z,102406.47
2022-10-09T16:50:03.623Z,102406.47
2022-10-09T16:53:06.525Z,102413.53
2022-10-09T16:56:15.745Z,102402.03
2022-10-09T16:59:18.591Z,102402.88
2022-10-09T17:02:21.471Z,102403.75
2022-10-09T17:05:25.467Z,102403.75
2022-10-09T17:08:28.772Z,102400.22
2022-10-09T17:11:32.964Z,102410.84
2022-10-09T17:14:36.927Z,102404.66
2022-10-09T17:17:39.776Z,102400.22
2022-10-09T17:20:42.710Z,102403.75
2022-10-09T17:23:46.530Z,102401.09
2022-10-09T17:26:50.775Z,102410.81
2022-10-09T17:29:53.764Z,102407.28
2022-10-09T17:32:56.651Z,102401.94
2022-10-09T17:35:59.709Z,102402.88
2022-10-09T17:39:03.135Z,102401.09
2022-10-09T17:42:07.813Z,102401.94
2022-10-09T17:45:11.101Z,102400.22
2022-10-09T17:48:14.410Z,102396.63
2022-10-09T17:51:19.881Z,102395.75
2022-10-09T17:54:22.789Z,102401.94
2022-10-09T17:57:26.954Z,102408.16
2022-10-09T18:00:29.803Z,102394.78
2022-10-09T18:03:32.831Z,102395.69
2022-10-09T18:06:36.083Z,102383.28
2022-10-09T18:09:39.638Z,102398.38
2022-10-09T18:12:43.969Z,102391.28
2022-10-09T18:15:46.809Z,102393.13
2022-10-09T18:18:49.876Z,102395.81
2022-10-09T18:21:52.753Z,102387.88
2022-10-09T18:24:55.523Z,102391.50
2022-10-09T18:27:59.864Z,102390.63
2022-10-09T18:31:06.045Z,102382.69
2022-10-09T18:34:09.108Z,102376.47
2022-10-09T18:37:11.917Z,102377.38
2022-10-09T18:40:15.023Z,102372.06
2022-10-09T18:43:19.148Z,102376.47
2022-10-09T18:46:25.782Z,102364.94
2022-10-09T18:49:31.305Z,102370.28
2022-10-09T18:52:35.204Z,102369.38
2022-10-09T18:55:38.154Z,102371.16
2022-10-09T18:58:42.928Z,102364.94
2022-10-09T19:01:45.785Z,102352.53
2022-10-09T19:04:48.737Z,102357.00
2022-10-09T19:07:52.094Z,102357.00
2022-10-09T19:10:55.430Z,102355.22
2022-10-09T19:14:00.730Z,102357.00
2022-10-09T19:17:03.574Z,102352.56
2022-10-09T19:20:07.180Z,102349.91
2022-10-09T19:23:10.062Z,102344.59
2022-10-09T19:26:13.912Z,102347.25
2022-10-09T19:29:18.164Z,102341.03
2022-10-09T19:32:23.832Z,102335.72
2022-10-09T19:35:27.028Z,102335.72
2022-10-09T19:38:30.418Z,102332.13
2022-10-09T19:41:33.353Z,102330.34
2022-10-09T19:44:37.602Z,102333.88
2022-10-09T19:47:40.660Z,102329.44
2022-10-09T19:50:44.212Z,102329.44
2022-10-09T19:53:47.285Z,102337.44
2022-10-09T19:56:50.673Z,102336.56
2022-10-09T19:59:54.912Z,102335.72
2022-10-09T20:02:57.798Z,102331.22
2022-10-09T20:06:02.680Z,102333.03
2022-10-09T20:09:06.167Z,102330.38
2022-10-09T20:12:09.651Z,102332.13
2022-10-09T20:15:14.361Z,102332.13
2022-10-09T20:18:17.277Z,102322.34
2022-10-09T20:21:20.137Z,102329.44
2022-10-09T20:24:23.070Z,102317.91
2022-10-09T20:27:26.449Z,102324.97
2022-10-09T20:30:30.717Z,102318.78
2022-10-09T20:33:34.171Z,102317.91
2022-10-09T20:36:39.108Z,102317.91
2022-10-09T20:39:42.150Z,102312.59
2022-10-09T20:42:45.035Z,102310.81
2022-10-09T20:45:49.304Z,102313.47
2022-10-09T20:48:53.258Z,102302.84
2022-10-09T20:51:56.758Z,102305.50
2022-10-09T20:54:59.603Z,102303.72
2022-10-09T20:58:02.784Z,102307.25
2022-10-09T21:01:09.711Z,102307.25
2022-10-09T21:04:12.852Z,102293.94
2022-10-09T21:07:15.695Z,102297.50
2022-10-09T21:10:18.582Z,102293.97
2022-10-09T21:13:21.390Z,102294.84
2022-10-09T21:16:26.003Z,102294.84
2022-10-09T21:19:28.882Z,102294.00
2022-10-09T21:22:31.863Z,102284.25
2022-10-09T21:25:35.157Z,102287.78
2022-10-09T21:28:38.011Z,102281.53
2022-10-09T21:31:43.030Z,102277.97
2022-10-09T21:34:47.594Z,102275.31
2022-10-09T21:37:50.973Z,102277.09
2022-10-09T21:40:53.860Z,102276.22
2022-10-09T21:43:56.621Z,102280.66
2022-10-09T21:47:00.868Z,102276.22
2022-10-09T21:50:03.683Z,102277.13
2022-10-09T21:53:06.464Z,102275.38
2022-10-09T21:56:09.894Z,102275.38
2022-10-09T21:59:12.726Z,102271.84
2022-10-09T22:02:16.857Z,102272.75
2022-10-09T22:05:19.720Z,102268.31
2022-10-09T22:08:23.469Z,102271.88
2022-10-09T22:11:26.285Z,102271.88
2022-10-09T22:14:29.069Z,102269.25
2022-10-09T22:17:33.244Z,102255.94
2022-10-09T22:20:41.581Z,102252.41
2022-10-09T22:23:45.028Z,102256.84
2022-10-09T22:26:47.798Z,102262.16
2022-10-09T22:29:50.565Z,102262.16
2022-10-09T22:32:55.668Z,102256.84
2022-10-09T22:36:09.716Z,102257.72
2022-10-09T22:39:14.380Z,102257.72
2022-10-09T22:42:17.210Z,102255.06
2022-10-09T22:45:20.016Z,102248.00
2022-10-09T22:48:24.242Z,102248.00
2022-10-09T22:51:28.567Z,102242.69
2022-10-09T22:54:31.375Z,102246.25
2022-10-09T22:57:34.173Z,102242.69
2022-10-09T23:00:37.559Z,102238.31
2022-10-09T23:03:41.868Z,102239.19
2022-10-09T23:06:45.713Z,102229.44
2022-10-09T23:09:48.489Z,102231.22
2022-10-09T23:12:51.710Z,102222.34
2022-10-09T23:15:54.715Z,102217.03
2022-10-09T23:19:05.423Z,102224.09
2022-10-09T23:22:09.055Z,102217.03
2022-10-09T23:25:11.871Z,102211.69
2022-10-09T23:28:14.838Z,102219.69
2022-10-09T23:31:17.715Z,102211.69
2022-10-09T23:34:21.911Z,102212.63
2022-10-09T23:37:24.781Z,102210.88
2022-10-09T23:40:27.593Z,102210.88
2022-10-09T23:43:31.567Z,102202.88
2022-10-09T23:46:34.466Z,102199.38
2022-10-09T23:49:39.413Z,102200.22
2022-10-09T23:52:42.223Z,102201.16
2022-10-09T23:55:45.167Z,102196.72
2022-10-09T23:58:48.299Z,102200.25
